Amboy, Minnesota
Current Conditions -  °F | °C
As of 6:15 AM on Friday 28 Nov 2014 (Local Time) from KJYG Reporting Station
Clear Clear  
Wind Chill: -18°   Ceiling: Unl
Heat Index: -11°   Visibility: 10mi
Dew Point: -13°   Wind: 9mph
Humidity: 85%   Direction: 130°SE
Pressure: 29.96"   Gusts: NA
Location:  43.89°N, 94.16°W
Report Text: KJYG 281215Z AUTO 13008KT 10SM CLR M11/M13 A2996 RMK AO2
Loading
Personal Weather Stations






























Interactive Weather Map New forecast layout! Learn more

10-Day Weather Forecast

Advertisements
Track Severe Weather on mobile